createdAt,value
2023-02-27T00:00:23.696Z,44.45
2023-02-27T00:02:54.273Z,44.02
2023-02-27T00:05:26.081Z,43.83
2023-02-27T00:07:57.639Z,43.92
2023-02-27T00:10:26.838Z,44.45
2023-02-27T00:12:53.964Z,44.57
2023-02-27T00:15:23.484Z,44.42
2023-02-27T00:17:51.029Z,44.66
2023-02-27T00:20:19.864Z,45.20
2023-02-27T00:22:46.946Z,44.89
2023-02-27T00:25:14.683Z,44.68
2023-02-27T00:27:46.495Z,45.02
2023-02-27T00:30:16.058Z,44.93
2023-02-27T00:32:42.749Z,44.99
2023-02-27T00:35:11.350Z,44.52
2023-02-27T00:37:38.680Z,44.50
2023-02-27T00:40:08.484Z,44.56
2023-02-27T00:42:35.678Z,44.84
2023-02-27T00:45:06.595Z,44.71
2023-02-27T00:47:37.211Z,44.74
2023-02-27T00:50:07.774Z,45.00
2023-02-27T00:52:36.919Z,44.92
2023-02-27T00:55:06.966Z,45.50
2023-02-27T00:57:33.756Z,45.82
2023-02-27T01:00:02.785Z,45.36
2023-02-27T01:02:29.876Z,45.38
2023-02-27T01:04:59.012Z,45.19
2023-02-27T01:07:25.832Z,45.49
2023-02-27T01:09:53.475Z,45.61
2023-02-27T01:12:23.247Z,45.81
2023-02-27T01:14:50.263Z,45.65
2023-02-27T01:17:17.506Z,45.55
2023-02-27T01:19:46.849Z,45.69
2023-02-27T01:22:14.026Z,45.39
2023-02-27T01:24:43.726Z,45.40
2023-02-27T01:27:10.577Z,45.09
2023-02-27T01:29:37.336Z,44.85
2023-02-27T01:32:04.398Z,44.69
2023-02-27T01:34:34.391Z,44.60
2023-02-27T01:37:02.469Z,44.49
2023-02-27T01:39:29.450Z,44.27
2023-02-27T01:41:58.905Z,44.07
2023-02-27T01:44:30.141Z,43.62
2023-02-27T01:47:00.317Z,43.79
2023-02-27T01:49:33.737Z,43.70
2023-02-27T01:52:06.185Z,43.51
2023-02-27T01:54:36.554Z,43.56
2023-02-27T01:57:10.168Z,43.76
2023-02-27T01:59:40.675Z,43.92
2023-02-27T02:02:17.558Z,43.79
2023-02-27T02:04:49.908Z,43.79
2023-02-27T02:07:18.275Z,43.93
2023-02-27T02:09:57.264Z,43.68
2023-02-27T02:12:29.297Z,43.52
2023-02-27T02:14:56.084Z,43.55
2023-02-27T02:18:01.681Z,43.14
2023-02-27T02:20:58.804Z,43.24
2023-02-27T02:24:11.922Z,43.00
2023-02-27T02:26:44.801Z,42.91
2023-02-27T02:29:15.561Z,43.63
2023-02-27T02:31:42.324Z,42.81
2023-02-27T02:34:53.435Z,42.73
2023-02-27T02:37:31.117Z,41.97
2023-02-27T02:40:04.715Z,42.11
2023-02-27T02:42:43.632Z,42.33
2023-02-27T02:45:10.451Z,42.55
2023-02-27T02:48:00.541Z,42.24
2023-02-27T02:50:43.531Z,42.49
2023-02-27T02:53:22.046Z,42.62
2023-02-27T02:55:52.802Z,42.54
2023-02-27T02:58:38.339Z,42.87
2023-02-27T03:01:22.272Z,42.49
2023-02-27T03:03:59.677Z,42.78
2023-02-27T03:06:33.818Z,42.58
2023-02-27T03:09:08.734Z,42.34
2023-02-27T03:11:40.064Z,42.36
2023-02-27T03:14:39.731Z,42.57
2023-02-27T03:17:18.063Z,42.62
2023-02-27T03:19:59.278Z,42.55
2023-02-27T03:22:34.092Z,42.88
2023-02-27T03:25:05.925Z,42.35
2023-02-27T03:27:38.765Z,42.91
2023-02-27T03:30:36.115Z,42.63
2023-02-27T03:33:30.307Z,42.62
2023-02-27T03:36:42.781Z,42.50
2023-02-27T03:39:53.930Z,42.94
2023-02-27T03:42:23.349Z,42.25
2023-02-27T03:45:37.530Z,42.30
2023-02-27T03:48:11.285Z,42.86
2023-02-27T03:50:43.967Z,41.99
2023-02-27T03:53:29.212Z,41.96
2023-02-27T03:55:58.499Z,41.83
2023-02-27T03:58:32.943Z,42.03
2023-02-27T04:01:02.909Z,41.90
2023-02-27T04:03:35.572Z,41.87
2023-02-27T04:06:22.689Z,42.35
2023-02-27T04:08:55.849Z,42.14
2023-02-27T04:11:26.306Z,41.89
2023-02-27T04:14:38.898Z,41.77
2023-02-27T04:17:16.130Z,42.08
2023-02-27T04:20:08.475Z,41.92
2023-02-27T04:22:47.331Z,41.64
2023-02-27T04:25:34.828Z,41.48
2023-02-27T04:28:25.605Z,41.11
2023-02-27T04:30:55.797Z,41.56
2023-02-27T04:33:57.304Z,41.69
2023-02-27T04:36:46.586Z,41.38
2023-02-27T04:39:22.966Z,41.50
2023-02-27T04:41:58.749Z,41.30
2023-02-27T04:44:26.255Z,41.05
2023-02-27T04:46:54.538Z,40.98
2023-02-27T04:49:31.804Z,41.06
2023-02-27T04:51:58.471Z,41.87
2023-02-27T04:54:42.135Z,41.04
2023-02-27T04:57:11.750Z,41.68
2023-02-27T04:59:39.995Z,41.28
2023-02-27T05:02:08.295Z,41.30
2023-02-27T05:04:37.929Z,41.69
2023-02-27T05:07:07.918Z,41.42
2023-02-27T05:09:41.104Z,41.58
2023-02-27T05:12:29.161Z,41.85
2023-02-27T05:15:11.289Z,41.82
2023-02-27T05:17:52.590Z,42.04
2023-02-27T05:20:19.616Z,41.80
2023-02-27T05:22:48.879Z,40.85
2023-02-27T05:25:28.355Z,40.90
2023-02-27T05:28:04.423Z,40.86
2023-02-27T05:30:36.281Z,41.40
2023-02-27T05:33:15.481Z,41.36
2023-02-27T05:35:48.198Z,41.33
2023-02-27T05:38:24.189Z,41.21
2023-02-27T05:41:04.238Z,41.01
2023-02-27T05:43:43.333Z,41.45
2023-02-27T05:46:21.966Z,41.57
2023-02-27T05:49:05.624Z,41.65
2023-02-27T05:51:34.190Z,41.05
2023-02-27T05:54:06.078Z,41.37
2023-02-27T05:56:36.847Z,41.85
2023-02-27T05:59:15.113Z,41.96
2023-02-27T06:01:42.783Z,41.19
2023-02-27T06:04:10.621Z,40.83
2023-02-27T06:06:37.495Z,40.71
2023-02-27T06:09:09.509Z,40.63
2023-02-27T06:11:38.813Z,40.37
2023-02-27T06:14:07.867Z,40.84
2023-02-27T06:16:39.259Z,40.89
2023-02-27T06:19:08.830Z,40.87
2023-02-27T06:21:39.971Z,40.94
2023-02-27T06:24:08.968Z,40.90
2023-02-27T06:26:39.371Z,40.47
2023-02-27T06:29:08.564Z,40.97
2023-02-27T06:31:35.336Z,40.34
2023-02-27T06:34:04.928Z,40.35
2023-02-27T06:36:31.828Z,40.67
2023-02-27T06:39:01.170Z,40.23
2023-02-27T06:41:29.301Z,39.98
2023-02-27T06:43:56.499Z,40.56
2023-02-27T06:46:25.938Z,40.21
2023-02-27T06:48:53.243Z,39.59
2023-02-27T06:51:20.054Z,39.08
2023-02-27T06:53:46.777Z,39.56
2023-02-27T06:56:16.066Z,39.72
2023-02-27T06:58:43.124Z,39.29
2023-02-27T07:01:10.012Z,38.95
2023-02-27T07:03:36.801Z,38.75
2023-02-27T07:06:03.840Z,38.06
2023-02-27T07:08:30.623Z,39.19
2023-02-27T07:11:01.864Z,38.23
2023-02-27T07:13:31.674Z,38.46
2023-02-27T07:15:58.565Z,38.92
2023-02-27T07:18:25.695Z,38.01
2023-02-27T07:20:52.499Z,37.24
2023-02-27T07:23:19.264Z,38.66
2023-02-27T07:25:48.666Z,37.63
2023-02-27T07:28:19.035Z,37.73
2023-02-27T07:30:46.490Z,38.28
2023-02-27T07:33:15.791Z,37.74
2023-02-27T07:35:45.571Z,38.56
2023-02-27T07:38:19.004Z,37.00
2023-02-27T07:40:46.512Z,36.71
2023-02-27T07:43:13.485Z,37.92
2023-02-27T07:45:42.820Z,37.38
2023-02-27T07:48:10.829Z,37.46
2023-02-27T07:50:38.284Z,37.65
2023-02-27T07:53:10.379Z,36.68
2023-02-27T07:55:39.930Z,36.64
2023-02-27T07:58:09.029Z,37.13
2023-02-27T08:00:35.797Z,37.36
2023-02-27T08:03:05.143Z,37.42
2023-02-27T08:05:31.974Z,36.34
2023-02-27T08:08:03.631Z,36.49
2023-02-27T08:10:30.373Z,37.40
2023-02-27T08:12:57.121Z,36.15
2023-02-27T08:15:24.646Z,35.35
2023-02-27T08:17:54.036Z,36.60
2023-02-27T08:20:24.378Z,36.48
2023-02-27T08:22:51.171Z,36.49
2023-02-27T08:25:21.531Z,36.46
2023-02-27T08:27:48.361Z,36.27
2023-02-27T08:30:17.857Z,36.32
2023-02-27T08:32:47.042Z,35.88
2023-02-27T08:35:13.892Z,36.33
2023-02-27T08:37:42.918Z,36.52
2023-02-27T08:40:13.457Z,37.03
2023-02-27T08:42:42.435Z,35.79
2023-02-27T08:45:10.420Z,35.89
2023-02-27T08:47:37.433Z,36.08
2023-02-27T08:50:06.656Z,35.48
2023-02-27T08:52:35.915Z,35.85
2023-02-27T08:55:05.697Z,35.73
2023-02-27T08:57:37.353Z,35.77
2023-02-27T09:00:14.546Z,36.10
2023-02-27T09:02:41.884Z,35.92
2023-02-27T09:05:11.981Z,35.67
2023-02-27T09:07:39.080Z,34.40
2023-02-27T09:10:08.553Z,34.96
2023-02-27T09:12:35.434Z,33.87
2023-02-27T09:15:05.471Z,35.01
2023-02-27T09:17:36.629Z,34.71
2023-02-27T09:20:09.214Z,34.74
2023-02-27T09:22:40.960Z,34.26
2023-02-27T09:25:10.502Z,34.42
2023-02-27T09:27:37.158Z,33.03
2023-02-27T09:30:06.806Z,34.14
2023-02-27T09:32:33.838Z,34.09
2023-02-27T09:35:03.236Z,34.21
2023-02-27T09:37:30.053Z,33.53
2023-02-27T09:39:56.911Z,34.05
2023-02-27T09:42:26.233Z,34.22
2023-02-27T09:44:56.572Z,34.62
2023-02-27T09:47:26.003Z,33.83
2023-02-27T09:50:18.076Z,34.09
2023-02-27T09:52:47.382Z,34.30
2023-02-27T09:55:22.826Z,34.01
2023-02-27T09:58:08.115Z,34.03
2023-02-27T10:00:53.534Z,33.57
2023-02-27T10:03:36.822Z,32.82
2023-02-27T10:06:44.775Z,31.75
2023-02-27T10:09:29.819Z,32.47
2023-02-27T10:12:04.369Z,31.95
2023-02-27T10:14:47.516Z,32.76
2023-02-27T10:17:22.614Z,33.18
2023-02-27T10:19:51.651Z,33.11
2023-02-27T10:22:26.254Z,33.51
2023-02-27T10:25:01.353Z,33.05
2023-02-27T10:27:33.028Z,31.41
2023-02-27T10:30:29.567Z,32.19
2023-02-27T10:33:28.721Z,31.55
2023-02-27T10:35:55.704Z,31.84
2023-02-27T10:38:40.070Z,31.20
2023-02-27T10:41:12.275Z,31.77
2023-02-27T10:43:44.518Z,31.77
2023-02-27T10:46:22.303Z,31.18
2023-02-27T10:48:51.596Z,32.12
2023-02-27T10:51:28.523Z,31.85
2023-02-27T10:54:14.719Z,31.61
2023-02-27T10:56:41.912Z,32.18
2023-02-27T10:59:37.804Z,32.20
2023-02-27T11:02:20.987Z,30.83
2023-02-27T11:04:53.927Z,31.47
2023-02-27T11:07:47.756Z,30.67
2023-02-27T11:10:14.935Z,31.54
2023-02-27T11:12:46.004Z,31.05
2023-02-27T11:15:15.744Z,31.06
2023-02-27T11:17:45.422Z,31.26
2023-02-27T11:20:39.765Z,30.18
2023-02-27T11:23:29.453Z,30.12
2023-02-27T11:26:11.138Z,29.82
2023-02-27T11:28:37.945Z,30.16
2023-02-27T11:31:21.455Z,29.50
2023-02-27T11:33:54.159Z,30.30
2023-02-27T11:36:23.854Z,29.81
2023-02-27T11:38:54.901Z,28.36
2023-02-27T11:41:30.710Z,29.24
2023-02-27T11:44:00.849Z,30.00
2023-02-27T11:46:48.414Z,30.48
2023-02-27T11:49:35.423Z,30.11
2023-02-27T11:52:23.008Z,30.42
2023-02-27T11:54:55.728Z,28.51
2023-02-27T11:57:32.983Z,29.16
2023-02-27T12:00:19.817Z,28.84
2023-02-27T12:03:01.016Z,30.17
2023-02-27T12:05:32.341Z,28.84
2023-02-27T12:08:31.485Z,27.97
2023-02-27T12:11:13.897Z,27.79
2023-02-27T12:13:49.733Z,28.85
2023-02-27T12:16:38.766Z,27.69
2023-02-27T12:19:31.917Z,27.52
2023-02-27T12:22:26.616Z,26.68
2023-02-27T12:25:03.708Z,25.32
2023-02-27T12:27:45.386Z,27.34
2023-02-27T12:30:19.475Z,27.34
2023-02-27T12:32:51.838Z,25.98
2023-02-27T12:35:28.513Z,24.91
2023-02-27T12:37:58.407Z,26.77
2023-02-27T12:40:38.981Z,25.70
2023-02-27T12:43:35.428Z,26.66
2023-02-27T12:46:20.873Z,26.46
2023-02-27T12:48:48.141Z,25.56
2023-02-27T12:51:18.242Z,25.25
2023-02-27T12:54:12.030Z,26.10
2023-02-27T12:56:56.883Z,25.51
2023-02-27T12:59:30.390Z,25.63
2023-02-27T13:02:02.980Z,24.69
2023-02-27T13:04:35.915Z,24.25
2023-02-27T13:07:39.135Z,24.07
2023-02-27T13:10:25.433Z,25.78
2023-02-27T13:13:00.817Z,25.92
2023-02-27T13:15:34.527Z,25.20
2023-02-27T13:18:08.670Z,25.77
2023-02-27T13:20:50.182Z,25.08
2023-02-27T13:23:49.412Z,26.46
2023-02-27T13:26:21.927Z,26.07
2023-02-27T13:28:54.209Z,26.87
2023-02-27T13:31:34.161Z,26.81
2023-02-27T13:34:06.818Z,27.38
2023-02-27T13:36:41.210Z,27.10
2023-02-27T13:39:40.532Z,25.61
2023-02-27T13:42:30.638Z,25.32
2023-02-27T13:44:58.377Z,26.10
2023-02-27T13:47:31.182Z,25.93
2023-02-27T13:50:06.091Z,26.26
2023-02-27T13:52:34.768Z,25.83
2023-02-27T13:55:11.172Z,26.81
2023-02-27T13:57:41.300Z,27.68
2023-02-27T14:00:25.360Z,26.96
2023-02-27T14:03:00.595Z,27.41
2023-02-27T14:05:37.900Z,28.03
2023-02-27T14:08:27.245Z,27.57
2023-02-27T14:10:56.249Z,26.58
2023-02-27T14:13:51.114Z,26.42
2023-02-27T14:16:44.298Z,26.45
2023-02-27T14:19:22.383Z,25.78
2023-02-27T14:21:51.330Z,25.40
2023-02-27T14:24:25.490Z,25.75
2023-02-27T14:26:58.326Z,25.18
2023-02-27T14:29:31.134Z,25.47
2023-02-27T14:32:04.079Z,25.24
2023-02-27T14:34:36.295Z,25.27
2023-02-27T14:37:07.172Z,25.10
2023-02-27T14:39:36.111Z,25.16
2023-02-27T14:42:41.215Z,24.28
2023-02-27T14:45:19.928Z,24.56
2023-02-27T14:47:51.047Z,24.41
2023-02-27T14:50:28.879Z,23.92
2023-02-27T14:52:55.766Z,22.62
2023-02-27T14:55:34.640Z,23.46
2023-02-27T14:58:07.524Z,22.31
2023-02-27T15:00:39.786Z,23.06
2023-02-27T15:03:19.802Z,22.85
2023-02-27T15:05:50.956Z,22.93
2023-02-27T15:08:23.829Z,22.62
2023-02-27T15:10:54.891Z,22.63
2023-02-27T15:13:37.510Z,22.41
2023-02-27T15:16:23.606Z,22.94
2023-02-27T15:18:55.437Z,24.01
2023-02-27T15:21:28.122Z,24.98
2023-02-27T15:23:59.375Z,25.76
2023-02-27T15:26:30.272Z,26.00
2023-02-27T15:29:00.417Z,26.03
2023-02-27T15:31:31.517Z,26.14
2023-02-27T15:34:00.401Z,26.34
2023-02-27T15:36:33.132Z,26.52
2023-02-27T15:39:12.325Z,26.80
2023-02-27T15:41:39.270Z,27.63
2023-02-27T15:44:06.254Z,27.78
2023-02-27T15:46:33.324Z,28.06
2023-02-27T15:49:00.206Z,28.20
2023-02-27T15:51:28.608Z,28.59
2023-02-27T15:53:59.468Z,28.73
2023-02-27T15:56:33.202Z,29.26
2023-02-27T15:59:03.150Z,29.25
2023-02-27T16:01:35.054Z,29.44
2023-02-27T16:04:04.703Z,29.72
2023-02-27T16:06:34.276Z,29.89
2023-02-27T16:09:20.877Z,30.20
2023-02-27T16:11:47.662Z,30.19
2023-02-27T16:14:37.070Z,30.66
2023-02-27T16:17:06.059Z,30.60
2023-02-27T16:19:32.808Z,30.78
2023-02-27T16:22:11.780Z,31.00
2023-02-27T16:24:38.655Z,31.24
2023-02-27T16:27:05.787Z,31.36
2023-02-27T16:29:40.539Z,31.95
2023-02-27T16:32:23.983Z,31.91
2023-02-27T16:34:52.148Z,32.17
2023-02-27T16:37:23.951Z,32.36
2023-02-27T16:39:52.588Z,32.28
2023-02-27T16:42:20.879Z,32.31
2023-02-27T16:44:47.711Z,32.13
2023-02-27T16:47:16.637Z,32.30
2023-02-27T16:49:45.602Z,32.54
2023-02-27T16:52:12.434Z,32.95
2023-02-27T16:54:39.192Z,32.62
2023-02-27T16:57:09.208Z,32.86
2023-02-27T16:59:39.162Z,33.18
2023-02-27T17:02:10.918Z,33.30
2023-02-27T17:04:37.799Z,33.36
2023-02-27T17:07:09.863Z,33.70
2023-02-27T17:09:36.804Z,33.75
2023-02-27T17:12:03.616Z,33.63
2023-02-27T17:14:30.455Z,33.57
2023-02-27T17:16:59.702Z,33.87
2023-02-27T17:19:29.161Z,34.44
2023-02-27T17:21:55.938Z,34.07
2023-02-27T17:24:22.780Z,34.03
2023-02-27T17:26:52.623Z,34.02
2023-02-27T17:29:19.549Z,34.21
2023-02-27T17:31:48.904Z,33.98
2023-02-27T17:34:18.654Z,34.24
2023-02-27T17:36:53.324Z,34.35
2023-02-27T17:39:22.427Z,34.40
2023-02-27T17:41:53.028Z,34.54
2023-02-27T17:44:19.974Z,34.49
2023-02-27T17:46:46.700Z,34.82
2023-02-27T17:49:13.572Z,34.71
2023-02-27T17:51:47.460Z,34.72
2023-02-27T17:54:17.240Z,34.81
2023-02-27T17:56:43.960Z,34.64
2023-02-27T17:59:13.186Z,34.58
2023-02-27T18:01:42.199Z,34.21
2023-02-27T18:04:11.357Z,34.31
2023-02-27T18:06:38.798Z,34.82
2023-02-27T18:09:08.543Z,34.92
2023-02-27T18:11:37.487Z,34.96
2023-02-27T18:14:04.982Z,34.71
2023-02-27T18:16:34.074Z,34.57
2023-02-27T18:19:09.925Z,34.79
2023-02-27T18:21:37.038Z,35.31
2023-02-27T18:24:06.665Z,36.35
2023-02-27T18:26:33.381Z,36.48
2023-02-27T18:29:05.967Z,36.47
2023-02-27T18:31:38.627Z,37.01
2023-02-27T18:34:06.176Z,36.85
2023-02-27T18:36:35.631Z,37.19
2023-02-27T18:39:06.159Z,37.47
2023-02-27T18:41:33.101Z,37.18
2023-02-27T18:44:00.082Z,37.90
2023-02-27T18:46:28.545Z,37.89
2023-02-27T18:49:00.926Z,37.96
2023-02-27T18:51:27.887Z,37.95
2023-02-27T18:53:55.133Z,38.38
2023-02-27T18:56:26.146Z,38.60
2023-02-27T18:58:53.566Z,38.16
2023-02-27T19:01:27.461Z,38.36
2023-02-27T19:04:00.374Z,38.39
2023-02-27T19:06:28.416Z,38.81
2023-02-27T19:08:55.426Z,38.53
2023-02-27T19:11:29.697Z,38.70
2023-02-27T19:14:05.086Z,38.69
2023-02-27T19:16:32.575Z,38.77
2023-02-27T19:19:01.358Z,39.04
2023-02-27T19:21:28.717Z,38.75
2023-02-27T19:23:55.516Z,38.63
2023-02-27T19:26:24.290Z,38.46
2023-02-27T19:28:53.685Z,38.48
2023-02-27T19:31:24.155Z,38.39
2023-02-27T19:33:53.632Z,38.03
2023-02-27T19:36:22.096Z,38.61
2023-02-27T19:38:49.227Z,39.10
2023-02-27T19:41:19.331Z,39.00
2023-02-27T19:43:50.338Z,38.78
2023-02-27T19:46:24.325Z,39.15
2023-02-27T19:48:54.891Z,38.63
2023-02-27T19:51:26.577Z,38.50
2023-02-27T19:53:53.917Z,38.52
2023-02-27T19:56:23.045Z,38.33
2023-02-27T19:58:50.701Z,38.45
2023-02-27T20:01:28.414Z,38.60
2023-02-27T20:03:56.191Z,39.24
2023-02-27T20:06:28.141Z,39.00
2023-02-27T20:08:55.797Z,39.24
2023-02-27T20:11:22.668Z,38.91
2023-02-27T20:13:50.349Z,38.95
2023-02-27T20:16:19.294Z,38.88
2023-02-27T20:18:46.146Z,39.09
2023-02-27T20:21:16.007Z,39.19
2023-02-27T20:23:44.392Z,39.29
2023-02-27T20:26:20.423Z,39.74
2023-02-27T20:28:48.369Z,39.53
2023-02-27T20:31:21.218Z,39.34
2023-02-27T20:33:51.483Z,39.22
2023-02-27T20:36:18.357Z,38.97
2023-02-27T20:38:48.645Z,39.64
2023-02-27T20:41:18.191Z,39.30
2023-02-27T20:43:45.033Z,38.85
2023-02-27T20:46:17.328Z,38.73
2023-02-27T20:48:45.395Z,39.10
2023-02-27T20:51:23.975Z,39.06
2023-02-27T20:53:56.071Z,38.58
2023-02-27T20:56:26.910Z,38.68
2023-02-27T20:58:56.298Z,38.59
2023-02-27T21:01:24.525Z,39.02
2023-02-27T21:03:56.135Z,38.81
2023-02-27T21:06:24.217Z,39.10
2023-02-27T21:08:54.538Z,39.00
2023-02-27T21:11:28.337Z,39.46
2023-02-27T21:13:57.096Z,39.71
2023-02-27T21:16:25.798Z,39.81
2023-02-27T21:18:56.800Z,39.61
2023-02-27T21:25:24.464Z,39.51
2023-02-27T21:27:51.667Z,39.58
2023-02-27T21:30:21.222Z,39.92
2023-02-27T21:32:47.806Z,39.99
2023-02-27T21:35:14.902Z,39.96
2023-02-27T21:37:46.833Z,40.15
2023-02-27T21:40:16.243Z,40.49
2023-02-27T21:42:45.394Z,40.34
2023-02-27T21:45:17.042Z,40.35
2023-02-27T21:47:49.632Z,40.05
2023-02-27T21:50:18.403Z,40.17
2023-02-27T21:52:45.112Z,40.18
2023-02-27T21:55:14.352Z,39.97
2023-02-27T21:57:41.074Z,39.73
2023-02-27T22:00:16.159Z,39.84
2023-02-27T22:02:42.912Z,39.98
2023-02-27T22:05:12.016Z,39.59
2023-02-27T22:07:38.803Z,39.72
2023-02-27T22:10:05.944Z,39.94
2023-02-27T22:12:32.682Z,40.18
2023-02-27T22:15:09.624Z,39.91
2023-02-27T22:17:36.458Z,39.92
2023-02-27T22:20:07.322Z,39.70
2023-02-27T22:22:34.160Z,39.62
2023-02-27T22:25:03.520Z,39.41
2023-02-27T22:27:30.319Z,39.74
2023-02-27T22:29:57.177Z,39.81
2023-02-27T22:32:24.086Z,40.23
2023-02-27T22:34:50.822Z,40.08
2023-02-27T22:37:19.613Z,40.64
2023-02-27T22:39:49.084Z,41.56
2023-02-27T22:42:15.868Z,42.51
2023-02-27T22:44:44.890Z,41.79
2023-02-27T22:47:14.358Z,42.08
2023-02-27T22:49:43.376Z,42.16
2023-02-27T22:52:13.503Z,42.25
2023-02-27T22:54:40.275Z,41.98
2023-02-27T22:57:07.124Z,42.17
2023-02-27T22:59:33.820Z,41.94
2023-02-27T23:02:02.767Z,42.07
2023-02-27T23:04:29.586Z,41.95
2023-02-27T23:06:56.468Z,42.11
2023-02-27T23:09:28.966Z,42.25
2023-02-27T23:11:58.888Z,42.04
2023-02-27T23:14:25.650Z,41.91
2023-02-27T23:16:52.418Z,42.06
2023-02-27T23:19:20.455Z,42.22
2023-02-27T23:21:47.506Z,42.31
2023-02-27T23:24:18.710Z,41.98
2023-02-27T23:26:48.689Z,41.76
2023-02-27T23:29:18.689Z,41.76
2023-02-27T23:31:45.618Z,42.12
2023-02-27T23:34:12.859Z,41.92
2023-02-27T23:36:42.643Z,41.92
2023-02-27T23:39:11.689Z,41.98
2023-02-27T23:41:38.490Z,41.90
2023-02-27T23:44:07.444Z,42.38
2023-02-27T23:46:37.303Z,42.30
2023-02-27T23:49:07.007Z,42.39
2023-02-27T23:51:38.596Z,42.50
2023-02-27T23:54:05.534Z,42.77
2023-02-27T23:56:34.412Z,42.68
2023-02-27T23:59:05.389Z,42.92
